Time;durP1;ratioP1;P1;durP2;ratioP2;P2;SDS_P1;SDS_P2;PMS_P1;PMS_P2;Temp;Humidity;BMP_temperature;BMP_pressure;BME280_temperature;BME280_humidity;BME280_pressure;Samples;Min_cycle;Max_cycle;Signal;HPM_P1;HPM_P2
2022/06/24 00:01:59;;;;;;;30.35;23.83;;;21.00;99.90;;;;;;5077874;28;20048;-62
2022/06/24 00:04:28;;;;;;;39.33;28.23;;;20.90;99.90;;;;;;5077474;28;20103;-65
2022/06/24 00:06:56;;;;;;;50.42;33.92;;;20.90;99.90;;;;;;5077258;28;20025;-65
2022/06/24 00:09:28;;;;;;;45.75;34.90;;;20.80;99.90;;;;;;5076760;28;20404;-63
2022/06/24 00:12:09;;;;;;;65.88;42.88;;;20.70;99.90;;;;;;5077256;28;20450;-64
2022/06/24 00:14:37;;;;;;;62.35;42.83;;;20.60;99.90;;;;;;5077108;28;20025;-60
2022/06/24 00:17:05;;;;;;;56.75;41.10;;;20.60;99.90;;;;;;5077200;28;20028;-58
2022/06/24 00:19:34;;;;;;;59.85;44.08;;;20.40;99.90;;;;;;5077094;28;20111;-58
2022/06/24 00:22:05;;;;;;;58.50;43.95;;;20.50;99.90;;;;;;5077107;28;20036;-60
2022/06/24 00:24:32;;;;;;;73.38;48.45;;;20.40;99.90;;;;;;5077276;28;20397;-58
2022/06/24 00:26:58;;;;;;;73.65;48.75;;;20.60;99.90;;;;;;5076868;28;20058;-58
2022/06/24 00:29:26;;;;;;;78.45;49.53;;;20.70;99.90;;;;;;5076948;28;20029;-58
2022/06/24 00:32:05;;;;;;;71.25;48.83;;;20.90;99.90;;;;;;5076655;28;20097;-59
2022/06/24 00:34:36;;;;;;;75.57;49.75;;;20.90;99.90;;;;;;5076940;28;20032;-59
2022/06/24 00:37:23;;;;;;;66.93;48.13;;;20.90;99.90;;;;;;5076833;28;20420;-58
2022/06/24 00:39:49;;;;;;;71.20;48.22;;;20.90;99.90;;;;;;5076189;28;20285;-60
2022/06/24 00:42:17;;;;;;;68.38;47.42;;;21.00;99.90;;;;;;5077201;28;20024;-60
2022/06/24 00:45:00;;;;;;;62.25;45.17;;;21.00;99.90;;;;;;5076902;28;20032;-60
2022/06/24 00:47:27;;;;;;;63.55;46.10;;;21.00;99.90;;;;;;5076810;28;20043;-60
2022/06/24 00:49:56;;;;;;;62.95;46.65;;;21.00;99.90;;;;;;5076801;28;20352;-61
2022/06/24 00:52:23;;;;;;;70.55;48.97;;;21.00;99.90;;;;;;5076808;28;20035;-60
2022/06/24 00:54:48;;;;;;;68.93;46.53;;;21.10;99.90;;;;;;5076769;28;20025;-61
2022/06/24 00:57:14;;;;;;;60.40;44.50;;;21.10;99.90;;;;;;5076737;28;20042;-60
2022/06/24 00:59:42;;;;;;;61.80;45.92;;;21.10;99.90;;;;;;5076699;28;20058;-61
2022/06/24 01:02:11;;;;;;;68.10;47.80;;;21.00;99.90;;;;;;5076719;28;20044;-60
2022/06/24 01:04:36;;;;;;;60.47;43.97;;;21.00;99.90;;;;;;5076693;28;20109;-60
2022/06/24 01:07:03;;;;;;;65.15;45.67;;;20.90;99.90;;;;;;5076508;28;20029;-62
2022/06/24 01:09:28;;;;;;;76.40;52.53;;;21.00;99.90;;;;;;5076763;28;20392;-62
2022/06/24 01:11:54;;;;;;;81.93;52.30;;;21.10;99.90;;;;;;5076732;28;20066;-63
2022/06/24 01:14:20;;;;;;;80.85;53.40;;;21.10;99.90;;;;;;5076648;28;20397;-62
2022/06/24 01:16:46;;;;;;;71.18;49.78;;;21.00;99.90;;;;;;5059004;28;20315;-63
2022/06/24 01:19:14;;;;;;;89.45;58.40;;;21.00;99.90;;;;;;5076599;28;20323;-63
2022/06/24 01:21:45;;;;;;;94.82;58.40;;;21.00;99.90;;;;;;5076229;28;20036;-64
2022/06/24 01:24:12;;;;;;;88.85;57.65;;;21.00;99.90;;;;;;5076481;28;20108;-66
2022/06/24 01:26:42;;;;;;;85.78;56.45;;;21.00;99.90;;;;;;5076358;28;20120;-66
2022/06/24 01:29:09;;;;;;;84.40;56.53;;;21.00;99.90;;;;;;5076350;28;20024;-66
2022/06/24 01:31:35;;;;;;;87.82;56.72;;;20.90;99.90;;;;;;5076434;28;20362;-66
2022/06/24 01:34:02;;;;;;;77.35;54.15;;;20.90;99.90;;;;;;5076417;28;20039;-66
2022/06/24 01:36:28;;;;;;;76.80;52.03;;;20.90;99.90;;;;;;5077251;28;20085;-66
2022/06/24 01:38:53;;;;;;;82.28;54.78;;;20.80;99.90;;;;;;5079829;28;20049;-65
2022/06/24 01:41:19;;;;;;;72.47;50.53;;;20.80;99.90;;;;;;5080597;28;20564;-65
2022/06/24 01:43:45;;;;;;;82.80;54.55;;;20.80;99.90;;;;;;5079587;28;20340;-64
2022/06/24 01:46:11;;;;;;;69.43;47.60;;;20.80;99.90;;;;;;5079965;28;20020;-64
2022/06/24 01:48:38;;;;;;;68.10;47.15;;;20.80;99.90;;;;;;5079047;28;20033;-64
2022/06/24 01:51:05;;;;;;;69.80;47.85;;;20.70;99.90;;;;;;5079849;28;20044;-64
2022/06/24 01:53:31;;;;;;;63.25;44.85;;;20.70;99.90;;;;;;5080983;28;20312;-64
2022/06/24 01:55:57;;;;;;;59.20;42.92;;;20.80;99.90;;;;;;5079811;28;20033;-64
2022/06/24 01:58:23;;;;;;;59.55;41.67;;;20.80;99.90;;;;;;5079950;28;20037;-64
2022/06/24 02:00:50;;;;;;;46.20;34.67;;;20.80;99.90;;;;;;5080274;28;20041;-64
2022/06/24 02:03:16;;;;;;;35.00;29.48;;;20.80;99.90;;;;;;5078777;28;20032;-65
2022/06/24 02:05:46;;;;;;;37.05;28.58;;;20.70;99.90;;;;;;5078955;28;20032;-64
2022/06/24 02:08:13;;;;;;;36.72;27.13;;;20.60;99.90;;;;;;5079540;28;20032;-64
2022/06/24 02:13:26;;;;;;;35.13;29.08;;;20.40;99.90;;;;;;5079429;28;20038;-64
2022/06/24 02:15:58;;;;;;;30.73;26.85;;;20.50;99.90;;;;;;5078641;28;20040;-64
2022/06/24 02:18:25;;;;;;;33.27;28.20;;;20.40;99.90;;;;;;5079459;28;20064;-63
2022/06/24 02:20:52;;;;;;;31.63;27.40;;;20.40;99.90;;;;;;5078648;28;20419;-62
2022/06/24 02:23:19;;;;;;;33.63;27.65;;;20.30;99.90;;;;;;5079275;28;20056;-62
2022/06/24 02:25:45;;;;;;;37.63;29.75;;;20.20;99.90;;;;;;5079188;28;20033;-64
2022/06/24 02:28:12;;;;;;;34.67;29.10;;;20.20;99.90;;;;;;5078402;28;20032;-62
2022/06/24 02:30:38;;;;;;;37.72;29.58;;;20.20;99.90;;;;;;5079129;28;20097;-62
2022/06/24 02:33:05;;;;;;;28.83;25.13;;;20.20;99.90;;;;;;5079130;28;20052;-61
2022/06/24 02:35:31;;;;;;;30.65;25.67;;;20.10;99.90;;;;;;5078956;28;20071;-61
2022/06/24 02:37:57;;;;;;;33.55;27.60;;;20.10;99.90;;;;;;5078824;28;20048;-62
2022/06/24 02:43:17;;;;;;;33.28;27.05;;;20.30;99.90;;;;;;5079010;28;20041;-61
2022/06/24 02:45:47;;;;;;;35.17;28.23;;;20.30;99.90;;;;;;5078965;28;20060;-61
2022/06/24 02:48:16;;;;;;;38.47;29.92;;;20.30;99.90;;;;;;5078808;28;20036;-61
2022/06/24 02:50:53;;;;;;;42.13;31.55;;;20.30;99.90;;;;;;5078753;28;20025;-62
2022/06/24 02:53:20;;;;;;;37.55;28.33;;;20.40;99.90;;;;;;5078763;28;20016;-59
2022/06/24 02:55:48;;;;;;;24.40;21.80;;;20.30;99.90;;;;;;5078675;28;20067;-61
2022/06/24 02:58:15;;;;;;;24.73;20.95;;;20.40;99.90;;;;;;5078605;28;20039;-62
2022/06/24 03:00:43;;;;;;;23.00;19.65;;;20.40;99.90;;;;;;5078474;28;20033;-60
2022/06/24 03:03:14;;;;;;;25.35;22.15;;;20.40;99.90;;;;;;5078517;28;20090;-61
2022/06/24 03:05:41;;;;;;;31.10;24.45;;;20.40;99.90;;;;;;5078478;28;20123;-58
2022/06/24 03:08:10;;;;;;;33.42;27.52;;;20.30;99.90;;;;;;5078328;28;20296;-58
2022/06/24 03:10:36;;;;;;;36.78;30.52;;;20.30;99.90;;;;;;5078305;28;20107;-58
2022/06/24 03:13:02;;;;;;;40.42;32.17;;;20.40;99.90;;;;;;5078255;28;20116;-58
2022/06/24 03:15:30;;;;;;;41.03;33.60;;;20.50;99.90;;;;;;5078253;28;20509;-58
2022/06/24 03:17:56;;;;;;;45.70;34.40;;;20.50;99.90;;;;;;5078151;28;20028;-58
2022/06/24 03:20:22;;;;;;;41.25;33.13;;;20.50;99.90;;;;;;5078150;28;20036;-58
2022/06/24 03:22:48;;;;;;;45.40;35.08;;;20.60;99.90;;;;;;5078077;28;20297;-58
2022/06/24 03:25:14;;;;;;;48.55;37.00;;;20.60;99.90;;;;;;5078078;28;20301;-58
2022/06/24 03:27:40;;;;;;;43.50;35.25;;;20.50;99.90;;;;;;5077053;28;20036;-58
2022/06/24 03:30:08;;;;;;;42.60;35.17;;;20.20;99.90;;;;;;5078159;28;20101;-59
2022/06/24 03:32:34;;;;;;;43.58;34.38;;;20.10;99.90;;;;;;5077784;28;20056;-59
2022/06/24 03:35:04;;;;;;;48.28;37.17;;;19.90;99.90;;;;;;5077791;28;20029;-58
2022/06/24 03:37:30;;;;;;;46.70;38.47;;;19.70;99.90;;;;;;5077112;28;20059;-58
2022/06/24 03:39:57;;;;;;;50.92;39.40;;;19.80;99.90;;;;;;5077770;28;20033;-58
2022/06/24 03:42:23;;;;;;;50.63;41.20;;;20.00;99.90;;;;;;5077745;28;20448;-58
2022/06/24 03:44:49;;;;;;;57.83;44.58;;;20.10;99.90;;;;;;5078064;28;20040;-58
2022/06/24 03:47:15;;;;;;;54.05;42.42;;;20.20;99.90;;;;;;5077552;28;20120;-58
2022/06/24 03:49:41;;;;;;;60.17;44.88;;;20.20;99.90;;;;;;5077563;28;20107;-59
2022/06/24 03:52:08;;;;;;;51.08;40.97;;;20.20;99.90;;;;;;5077601;28;20304;-60
2022/06/24 03:54:34;;;;;;;49.15;40.90;;;20.30;99.90;;;;;;5077401;28;20098;-66
2022/06/24 03:57:00;;;;;;;49.03;40.25;;;20.20;99.90;;;;;;5076494;28;20304;-66
2022/06/24 03:59:27;;;;;;;48.05;39.63;;;20.00;99.90;;;;;;5077028;28;20020;-57
2022/06/24 04:01:53;;;;;;;55.42;40.97;;;19.90;99.90;;;;;;5076536;28;20292;-58
2022/06/24 04:04:19;;;;;;;54.60;42.60;;;19.90;99.90;;;;;;5077348;28;20036;-59
2022/06/24 04:06:44;;;;;;;51.35;41.85;;;19.90;99.90;;;;;;5077567;28;20063;-60
2022/06/24 04:09:10;;;;;;;54.70;41.97;;;19.80;99.90;;;;;;5077366;28;20463;-62
2022/06/24 04:11:36;;;;;;;55.08;42.58;;;19.70;99.90;;;;;;5077360;28;20360;-64
2022/06/24 04:14:03;;;;;;;62.63;45.88;;;19.90;99.90;;;;;;5077038;28;20121;-65
2022/06/24 04:16:28;;;;;;;56.45;41.88;;;19.90;99.90;;;;;;5077014;28;20411;-66
2022/06/24 04:18:54;;;;;;;58.95;43.50;;;19.90;99.90;;;;;;5076632;28;20029;-66
2022/06/24 04:21:21;;;;;;;56.42;42.28;;;19.90;99.90;;;;;;5077040;28;20032;-67
2022/06/24 04:23:50;;;;;;;44.05;34.97;;;19.90;99.90;;;;;;5077078;28;20039;-67
2022/06/24 04:26:17;;;;;;;48.08;36.58;;;20.00;99.90;;;;;;5076848;28;20035;-68
2022/06/24 04:28:43;;;;;;;49.45;37.78;;;19.90;99.90;;;;;;5076823;28;20039;-67
2022/06/24 04:31:09;;;;;;;53.38;40.33;;;20.00;99.90;;;;;;5076802;28;20360;-67
2022/06/24 04:33:35;;;;;;;49.35;37.70;;;20.00;99.90;;;;;;5076879;28;20102;-68
2022/06/24 04:36:01;;;;;;;51.10;39.60;;;20.10;99.90;;;;;;5077004;28;20024;-68
2022/06/24 04:38:30;;;;;;;57.55;40.35;;;20.10;99.90;;;;;;5076302;28;20044;-67
2022/06/24 04:40:55;;;;;;;45.75;36.20;;;20.20;99.90;;;;;;5076955;28;20047;-66
2022/06/24 04:43:21;;;;;;;52.35;38.28;;;20.20;99.90;;;;;;5076149;28;20032;-65
2022/06/24 04:45:49;;;;;;;47.38;37.00;;;20.20;99.90;;;;;;5076891;28;20354;-65
2022/06/24 04:48:14;;;;;;;53.72;39.47;;;20.10;99.90;;;;;;5076683;28;20037;-66
2022/06/24 04:50:40;;;;;;;52.55;39.80;;;20.10;99.90;;;;;;5076820;28;20060;-65
2022/06/24 04:53:06;;;;;;;45.60;37.45;;;20.30;99.90;;;;;;5076874;28;20029;-66
2022/06/24 04:55:32;;;;;;;49.75;39.50;;;20.20;99.90;;;;;;5077080;28;20039;-65
2022/06/24 04:57:58;;;;;;;48.10;36.90;;;20.10;99.90;;;;;;5076685;28;20058;-66
2022/06/24 05:00:23;;;;;;;45.72;35.55;;;20.10;99.90;;;;;;5076769;28;20046;-65
2022/06/24 05:02:49;;;;;;;47.00;36.55;;;19.90;99.90;;;;;;5076628;28;20036;-66
2022/06/24 05:05:15;;;;;;;47.35;37.53;;;19.80;99.90;;;;;;5076745;28;20388;-66
2022/06/24 05:07:41;;;;;;;46.83;38.13;;;19.80;99.90;;;;;;5076720;28;20407;-65
2022/06/24 05:10:08;;;;;;;53.63;40.58;;;19.80;99.90;;;;;;5076914;28;20086;-65
2022/06/24 05:12:34;;;;;;;53.28;40.40;;;19.80;99.90;;;;;;5078808;28;20107;-65
2022/06/24 05:15:03;;;;;;;55.25;41.47;;;19.90;99.90;;;;;;5080540;28;20028;-64
2022/06/24 05:17:29;;;;;;;56.78;41.80;;;19.90;99.90;;;;;;5080543;28;20036;-65
2022/06/24 05:19:54;;;;;;;59.22;44.20;;;19.90;99.90;;;;;;5080456;28;20300;-65
2022/06/24 05:22:20;;;;;;;58.75;43.00;;;20.00;99.90;;;;;;5079735;28;20068;-65
2022/06/24 05:24:46;;;;;;;59.60;44.60;;;20.10;99.90;;;;;;5080451;28;20292;-66
2022/06/24 05:27:12;;;;;;;52.03;40.38;;;20.20;99.90;;;;;;5080508;28;20036;-65
2022/06/24 05:29:38;;;;;;;52.88;40.70;;;20.30;99.90;;;;;;5080746;28;20396;-66
2022/06/24 05:32:04;;;;;;;52.10;40.42;;;20.30;99.90;;;;;;5080535;28;20083;-65
2022/06/24 05:34:30;;;;;;;51.70;39.35;;;20.20;99.90;;;;;;5079373;28;20020;-65
2022/06/24 05:36:56;;;;;;;48.08;37.22;;;20.20;99.90;;;;;;5080174;28;20029;-64
2022/06/24 05:39:21;;;;;;;49.08;37.85;;;20.40;99.90;;;;;;5080130;28;20086;-65
2022/06/24 05:41:47;;;;;;;43.20;36.28;;;20.30;99.90;;;;;;5080086;28;20065;-64
2022/06/24 05:44:13;;;;;;;45.08;36.78;;;20.40;99.90;;;;;;5080033;28;20025;-64
2022/06/24 05:46:40;;;;;;;46.10;35.88;;;20.40;99.90;;;;;;5079823;28;20029;-65
2022/06/24 05:49:06;;;;;;;43.35;33.95;;;20.40;99.90;;;;;;5079118;28;20036;-64
2022/06/24 05:51:34;;;;;;;45.28;35.30;;;20.40;99.90;;;;;;5080357;28;20115;-64
2022/06/24 05:56:45;;;;;;;45.53;37.78;;;20.50;99.90;;;;;;5079660;28;20040;-64
2022/06/24 05:59:12;;;;;;;49.58;37.08;;;20.40;99.90;;;;;;5079772;28;20035;-65
2022/06/24 06:01:37;;;;;;;53.15;37.08;;;20.30;99.90;;;;;;5079678;28;20068;-66
2022/06/24 06:04:06;;;;;;;49.97;39.35;;;20.30;99.90;;;;;;5079548;28;20411;-63
2022/06/24 06:06:31;;;;;;;53.33;41.08;;;20.50;99.90;;;;;;5079885;28;20028;-63
2022/06/24 06:08:57;;;;;;;56.63;41.13;;;20.60;99.90;;;;;;5079622;28;20124;-68
2022/06/24 06:11:25;;;;;;;46.47;38.65;;;20.70;99.90;;;;;;5079668;28;20024;-61
2022/06/24 06:13:55;;;;;;;50.17;38.40;;;20.60;99.90;;;;;;5079396;28;20029;-62
2022/06/24 06:16:22;;;;;;;44.20;35.20;;;20.40;99.90;;;;;;5079377;28;20036;-62
2022/06/24 06:18:48;;;;;;;46.35;36.88;;;20.30;99.90;;;;;;5078889;28;20419;-62
2022/06/24 06:21:16;;;;;;;50.15;36.70;;;20.10;99.90;;;;;;5079246;28;20035;-60
2022/06/24 06:23:42;;;;;;;48.58;37.60;;;20.00;99.90;;;;;;5078966;28;20028;-62
2022/06/24 06:26:10;;;;;;;47.53;37.58;;;19.90;99.90;;;;;;5078832;28;20394;-64
2022/06/24 06:28:37;;;;;;;45.67;34.78;;;19.80;99.90;;;;;;5078293;28;20048;-63
2022/06/24 06:31:03;;;;;;;40.70;32.20;;;20.00;99.90;;;;;;5079126;28;20139;-63
2022/06/24 06:33:31;;;;;;;36.58;28.58;;;19.80;99.90;;;;;;5079075;28;20108;-63
2022/06/24 06:36:08;;;;;;;38.78;29.27;;;19.60;99.90;;;;;;5078410;28;20036;-63
2022/06/24 06:38:35;;;;;;;36.10;29.85;;;19.60;99.90;;;;;;5078823;28;20408;-63
2022/06/24 06:41:01;;;;;;;38.50;29.40;;;19.90;99.90;;;;;;5079419;28;20047;-62
2022/06/24 06:43:27;;;;;;;31.40;25.23;;;20.20;99.90;;;;;;5078839;28;20043;-62
2022/06/24 06:45:53;;;;;;;28.10;22.92;;;20.50;99.90;;;;;;5078912;28;20304;-61
2022/06/24 06:48:20;;;;;;;26.05;21.40;;;20.70;99.90;;;;;;5078772;28;20274;-60
2022/06/24 06:50:46;;;;;;;26.23;19.77;;;20.60;99.90;;;;;;5078473;28;20408;-61
2022/06/24 06:53:12;;;;;;;28.27;20.88;;;20.70;99.90;;;;;;5078990;28;20113;-61
2022/06/24 06:55:38;;;;;;;25.73;19.33;;;21.00;99.90;;;;;;5079331;28;20108;-59
2022/06/24 06:58:05;;;;;;;22.60;17.33;;;21.30;99.90;;;;;;5078735;28;20094;-60
2022/06/24 07:00:30;;;;;;;22.05;16.55;;;21.40;99.90;;;;;;5078577;28;20083;-59
2022/06/24 07:02:56;;;;;;;17.83;14.25;;;21.20;99.90;;;;;;5077864;28;20323;-58
2022/06/24 07:05:22;;;;;;;18.25;14.60;;;21.30;99.90;;;;;;5078588;28;20301;-59
2022/06/24 07:07:48;;;;;;;14.35;11.15;;;21.50;99.90;;;;;;5078362;28;20036;-58
2022/06/24 07:10:14;;;;;;;11.80;10.30;;;21.40;99.90;;;;;;5078448;28;20041;-58
2022/06/24 07:12:39;;;;;;;12.13;10.40;;;21.50;99.90;;;;;;5078281;28;20029;-58
2022/06/24 07:15:06;;;;;;;11.80;9.90;;;21.50;99.90;;;;;;5079023;28;20032;-58
2022/06/24 07:17:32;;;;;;;9.98;9.07;;;21.50;99.90;;;;;;5077834;28;20475;-59
2022/06/24 07:19:58;;;;;;;10.70;9.60;;;21.50;99.90;;;;;;5078238;28;20036;-58
2022/06/24 07:22:24;;;;;;;10.43;9.32;;;21.50;99.90;;;;;;5078327;28;20111;-59
2022/06/24 07:24:49;;;;;;;10.00;9.00;;;21.60;99.90;;;;;;5078195;28;20032;-58
2022/06/24 07:27:15;;;;;;;11.25;10.05;;;21.90;99.90;;;;;;5077923;28;20028;-58
2022/06/24 07:29:41;;;;;;;11.63;10.38;;;22.10;99.90;;;;;;5077342;28;20078;-59
2022/06/24 07:32:07;;;;;;;11.00;9.95;;;22.20;99.90;;;;;;5077873;28;20190;-59
2022/06/24 07:34:35;;;;;;;11.25;10.15;;;21.70;99.90;;;;;;5077124;28;20040;-60
2022/06/24 07:37:03;;;;;;;10.93;9.82;;;21.80;99.90;;;;;;5078009;28;20032;-59
2022/06/24 07:39:29;;;;;;;11.68;10.45;;;21.90;99.90;;;;;;5077773;28;20412;-62
2022/06/24 07:41:56;;;;;;;11.63;10.38;;;21.60;99.90;;;;;;5077057;28;20396;-61
2022/06/24 07:44:22;;;;;;;14.80;11.52;;;21.70;99.90;;;;;;5077787;28;20024;-62
2022/06/24 07:46:49;;;;;;;13.52;12.07;;;21.70;99.90;;;;;;5077600;28;20037;-61
2022/06/24 07:49:15;;;;;;;14.65;11.63;;;21.80;99.90;;;;;;5077201;28;20352;-61
2022/06/24 07:51:41;;;;;;;18.38;14.48;;;21.60;99.90;;;;;;5077591;28;20036;-64
2022/06/24 07:54:07;;;;;;;18.77;15.43;;;21.40;99.90;;;;;;5076810;28;20036;-62
2022/06/24 07:59:22;;;;;;;18.73;16.08;;;21.40;99.90;;;;;;5077450;28;20032;-63
2022/06/24 08:01:48;;;;;;;18.85;16.73;;;21.80;99.90;;;;;;5077425;28;20031;-63
2022/06/24 08:04:14;;;;;;;17.95;16.23;;;21.90;99.90;;;;;;5060117;28;20044;-67
2022/06/24 08:06:45;;;;;;;18.67;15.68;;;21.90;99.90;;;;;;5077290;28;20295;-67
2022/06/24 08:09:11;;;;;;;16.25;14.18;;;21.80;99.90;;;;;;5077691;28;20354;-67
2022/06/24 08:11:36;;;;;;;15.23;13.65;;;21.80;99.90;;;;;;5077407;28;20024;-68
2022/06/24 08:14:02;;;;;;;16.02;13.93;;;21.70;99.90;;;;;;5076754;28;20039;-71
2022/06/24 08:16:28;;;;;;;16.13;12.63;;;21.70;99.90;;;;;;5077784;28;20028;-71
2022/06/24 08:18:55;;;;;;;15.05;12.25;;;21.40;99.90;;;;;;5081060;28;20035;-71
2022/06/24 08:21:21;;;;;;;14.02;11.60;;;21.60;99.90;;;;;;5079597;28;20410;-70
2022/06/24 08:23:47;;;;;;;11.27;10.15;;;21.20;99.90;;;;;;5082769;28;20021;-71
2022/06/24 08:26:13;;;;;;;13.40;10.88;;;21.30;99.90;;;;;;5077146;28;20040;-70
2022/06/24 08:28:39;;;;;;;12.10;9.73;;;21.80;99.90;;;;;;5077114;28;20042;-70
2022/06/24 08:31:05;;;;;;;9.88;8.90;;;21.70;99.90;;;;;;5076954;28;20049;-68
2022/06/24 08:33:31;;;;;;;10.63;8.00;;;21.80;99.90;;;;;;5077134;28;20060;-68
2022/06/24 08:35:56;;;;;;;8.15;7.35;;;21.80;99.90;;;;;;5077419;28;20360;-66
2022/06/24 08:38:22;;;;;;;8.35;7.55;;;21.70;99.90;;;;;;5076509;28;20087;-66
2022/06/24 08:40:52;;;;;;;7.50;6.80;;;21.70;99.90;;;;;;5076602;28;20085;-64
2022/06/24 08:43:21;;;;;;;5.28;4.65;;;21.10;99.90;;;;;;5076911;28;20024;-66
2022/06/24 08:45:49;;;;;;;1.92;1.65;;;20.70;99.90;;;;;;5059592;28;20452;-64
2022/06/24 08:48:16;;;;;;;1.35;1.00;;;20.50;99.90;;;;;;5077031;28;20385;-70
2022/06/24 08:50:42;;;;;;;3.67;1.20;;;20.20;99.90;;;;;;5076850;28;20040;-71
2022/06/24 08:53:09;;;;;;;1.73;0.88;;;19.50;99.90;;;;;;5077092;28;20033;-68
2022/06/24 08:55:40;;;;;;;1.30;0.70;;;19.30;99.90;;;;;;5077606;28;20101;-70
2022/06/24 08:58:08;;;;;;;5.97;0.80;;;18.90;99.90;;;;;;5078145;28;20046;-69
2022/06/24 09:00:35;;;;;;;2.03;0.68;;;18.60;99.90;;;;;;5077253;28;20032;-69
2022/06/24 09:03:02;;;;;;;2.78;1.00;;;18.40;99.90;;;;;;5076738;28;20029;-71
2022/06/24 09:05:28;;;;;;;2.53;0.77;;;18.40;99.90;;;;;;5075723;28;20357;-72
2022/06/24 09:08:15;;;;;;;2.42;1.00;;;18.50;99.90;;;;;;5076512;28;20035;-71
2022/06/24 09:10:43;;;;;;;2.40;1.08;;;18.80;99.90;;;;;;5077118;28;20036;-71
2022/06/24 09:13:20;;;;;;;0.80;0.70;;;18.70;99.90;;;;;;5076618;28;20060;-71
2022/06/24 09:15:53;;;;;;;1.85;1.00;;;18.80;99.90;;;;;;5076524;28;20116;-71
2022/06/24 09:18:23;;;;;;;1.50;0.73;;;18.90;99.90;;;;;;5076489;28;20048;-71
2022/06/24 09:20:55;;;;;;;0.88;0.60;;;19.00;99.90;;;;;;5076882;28;20059;-70
2022/06/24 09:23:21;;;;;;;0.38;0.38;;;18.90;99.90;;;;;;5076567;28;20044;-71
2022/06/24 09:25:49;;;;;;;1.23;0.65;;;18.80;99.90;;;;;;5075627;28;20024;-72
2022/06/24 09:28:27;;;;;;;1.08;0.40;;;19.00;99.90;;;;;;5076192;28;20036;-71
2022/06/24 09:31:07;;;;;;;1.10;0.40;;;19.20;99.90;;;;;;5077295;28;20074;-71
2022/06/24 09:33:37;;;;;;;0.60;0.38;;;19.20;99.90;;;;;;5077122;28;20273;-71
2022/06/24 09:36:05;;;;;;;1.83;0.43;;;19.20;99.90;;;;;;5076684;28;20090;-72
2022/06/24 09:38:31;;;;;;;1.85;0.40;;;19.10;99.90;;;;;;5076313;28;20056;-71
2022/06/24 09:41:04;;;;;;;0.30;0.28;;;19.10;99.90;;;;;;5077065;28;20115;-69
2022/06/24 09:43:31;;;;;;;0.90;0.40;;;19.00;99.90;;;;;;5077009;28;20047;-72
2022/06/24 09:45:58;;;;;;;0.45;0.30;;;18.90;99.90;;;;;;5076435;28;20047;-72
2022/06/24 09:48:27;;;;;;;0.68;0.40;;;19.00;99.90;;;;;;5077609;28;20055;-72
2022/06/24 09:51:14;;;;;;;1.67;0.40;;;19.10;99.90;;;;;;5080227;28;20031;-72
2022/06/24 09:53:40;;;;;;;0.68;0.40;;;19.40;99.90;;;;;;5080019;28;20392;-70
2022/06/24 09:56:09;;;;;;;2.60;0.60;;;19.90;99.90;;;;;;5080833;28;20025;-72
2022/06/24 09:58:36;;;;;;;1.08;0.70;;;20.90;99.90;;;;;;5079108;28;20035;-68
2022/06/24 10:01:02;;;;;;;0.73;0.60;;;21.60;99.90;;;;;;5080690;28;20105;-70
2022/06/24 10:03:28;;;;;;;2.38;0.60;;;21.20;99.90;;;;;;5080149;28;20412;-70
2022/06/24 10:06:02;;;;;;;2.00;0.80;;;21.50;99.90;;;;;;5080417;28;20033;-69
2022/06/24 10:08:32;;;;;;;1.83;0.80;;;21.70;99.90;;;;;;5062529;28;20055;-68
2022/06/24 10:11:00;;;;;;;1.40;1.00;;;21.70;99.90;;;;;;5079791;28;20035;-65
2022/06/24 10:13:32;;;;;;;1.77;0.70;;;21.60;99.90;;;;;;5078908;28;20089;-65
2022/06/24 10:16:01;;;;;;;1.50;1.00;;;22.30;99.90;;;;;;5079521;28;20024;-65
2022/06/24 10:18:32;;;;;;;2.15;1.10;;;22.10;99.90;;;;;;5078808;28;20157;-65
2022/06/24 10:21:01;;;;;;;1.23;1.13;;;22.20;99.90;;;;;;5079459;28;20115;-64
2022/06/24 10:23:43;;;;;;;1.75;1.30;;;22.10;99.90;;;;;;5079433;28;20349;-64
2022/06/24 10:26:24;;;;;;;1.77;1.48;;;21.90;99.90;;;;;;5079714;28;20032;-63
2022/06/24 10:28:59;;;;;;;1.80;1.40;;;21.40;99.90;;;;;;5078865;28;20127;-62
2022/06/24 10:31:49;;;;;;;2.00;1.80;;;21.00;99.90;;;;;;5078396;28;20093;-64
2022/06/24 10:34:29;;;;;;;2.92;1.63;;;21.00;99.90;;;;;;5076436;28;20060;-65
2022/06/24 10:37:04;;;;;;;2.33;2.10;;;21.30;99.90;;;;;;5079154;28;20392;-61
2022/06/24 10:39:33;;;;;;;4.00;2.80;;;21.20;99.90;;;;;;5079326;28;20097;-62
2022/06/24 10:42:07;;;;;;;4.35;2.30;;;21.00;99.90;;;;;;5079047;28;20066;-61
2022/06/24 10:44:35;;;;;;;2.63;2.30;;;21.10;99.90;;;;;;5078946;28;20032;-60
2022/06/24 10:47:10;;;;;;;3.38;2.10;;;21.40;99.90;;;;;;5078776;28;20033;-61
2022/06/24 10:50:12;;;;;;;3.17;2.50;;;21.40;99.90;;;;;;5079003;28;20020;-60
2022/06/24 10:52:47;;;;;;;2.40;2.20;;;21.20;99.90;;;;;;5078385;28;20075;-59
2022/06/24 10:57:52;;;;;;;2.53;2.10;;;22.20;99.90;;;;;;5078617;28;20058;-62
2022/06/24 11:00:19;;;;;;;1.98;1.80;;;22.50;99.90;;;;;;5078662;28;20036;-64
2022/06/24 11:02:49;;;;;;;1.98;1.80;;;23.10;99.90;;;;;;5078416;28;20389;-65
2022/06/24 11:05:21;;;;;;;1.95;1.75;;;22.80;99.90;;;;;;5078452;28;20066;-65
2022/06/24 11:07:50;;;;;;;;;;;22.80;99.90;;;;;;5078754;28;20028;-68
2022/06/24 11:10:21;;;;;;;2.53;1.75;;;22.90;99.90;;;;;;5077325;28;19905;-66
2022/06/24 11:12:52;;;;;;;5.47;1.83;;;23.30;99.90;;;;;;5078457;28;20029;-70
2022/06/24 11:15:18;;;;;;;1.40;1.30;;;24.00;99.90;;;;;;5078231;28;20056;-67
2022/06/24 11:17:45;;;;;;;3.85;1.63;;;23.80;99.90;;;;;;5078076;28;20040;-66
2022/06/24 11:20:12;;;;;;;1.33;1.23;;;24.40;99.90;;;;;;5078169;28;20043;-68
2022/06/24 11:22:45;;;;;;;1.40;1.20;;;25.80;99.90;;;;;;5078313;28;20158;-71
2022/06/24 11:25:14;;;;;;;3.53;1.40;;;26.10;99.90;;;;;;5078270;28;20296;-67
2022/06/24 11:27:40;;;;;;;2.33;1.58;;;24.90;99.90;;;;;;5078036;28;20044;-68
2022/06/24 11:30:08;;;;;;;1.50;1.40;;;24.00;99.90;;;;;;5078552;28;20351;-71
2022/06/24 11:33:09;;;;;;;2.60;1.25;;;23.80;99.90;;;;;;5062162;28;20089;-71
2022/06/24 11:35:36;;;;;;;2.78;1.60;;;24.10;99.90;;;;;;5057081;28;20029;-73
2022/06/24 11:38:06;;;;;;;1.95;1.70;;;24.30;99.90;;;;;;5053584;28;20053;-74
2022/06/24 11:40:32;;;;;;;2.35;1.52;;;24.20;99.90;;;;;;5079699;28;20032;-75
2022/06/24 11:43:09;;;;;;;1.38;1.27;;;24.50;99.90;;;;;;5077250;28;20040;-73
2022/06/24 11:45:37;;;;;;;1.85;1.50;;;25.60;99.90;;;;;;5079074;28;20036;-71
2022/06/24 11:48:05;;;;;;;3.00;1.45;;;24.90;99.90;;;;;;5077977;28;20044;-73
2022/06/24 11:50:34;;;;;;;1.52;1.35;;;25.40;99.90;;;;;;5077792;28;20028;-73
2022/06/24 11:53:01;;;;;;;2.15;1.48;;;25.20;99.90;;;;;;5079264;28;20337;-72
2022/06/24 11:55:32;;;;;;;1.70;1.60;;;25.00;99.90;;;;;;5078699;28;20044;-68
2022/06/24 11:57:59;;;;;;;2.20;2.00;;;25.40;99.90;;;;;;5077510;28;20043;-69
2022/06/24 12:00:27;;;;;;;1.70;1.45;;;25.90;99.90;;;;;;5076656;28;20113;-67
2022/06/24 12:02:55;;;;;;;3.13;1.70;;;26.00;99.90;;;;;;5077580;28;20370;-67
2022/06/24 12:05:25;;;;;;;4.90;1.67;;;26.60;99.90;;;;;;5077677;28;20040;-67
2022/06/24 12:07:52;;;;;;;3.33;1.98;;;26.30;99.90;;;;;;5077402;28;20043;-71
2022/06/24 12:10:17;;;;;;;2.58;2.20;;;25.20;99.90;;;;;;5077180;28;20027;-67
2022/06/24 12:13:00;;;;;;;1.40;1.30;;;26.80;99.90;;;;;;5077108;28;20384;-68
2022/06/24 12:15:51;;;;;;;2.55;1.52;;;29.30;99.90;;;;;;5077169;28;20277;-69
2022/06/24 12:18:19;;;;;;;1.90;1.50;;;28.10;99.90;;;;;;5077181;28;20300;-69
2022/06/24 12:20:56;;;;;;;2.42;1.45;;;27.40;99.90;;;;;;5076125;28;20044;-65
2022/06/24 12:23:23;;;;;;;1.48;1.38;;;27.80;99.90;;;;;;5076940;28;20039;-68
2022/06/24 12:25:50;;;;;;;2.17;1.85;;;27.30;99.90;;;;;;5076802;28;20032;-66
2022/06/24 12:28:25;;;;;;;5.18;1.40;;;27.30;99.90;;;;;;5059364;28;20028;-68
2022/06/24 12:30:58;;;;;;;2.38;2.03;;;28.70;99.90;;;;;;5077007;28;20104;-70
2022/06/24 12:33:25;;;;;;;2.17;1.90;;;26.80;99.90;;;;;;5077248;28;20029;-70
2022/06/24 12:36:09;;;;;;;2.50;1.70;;;25.80;99.90;;;;;;5076845;28;20017;-65
2022/06/24 12:38:40;;;;;;;2.85;1.50;;;27.70;99.90;;;;;;5076743;28;20045;-64
2022/06/24 12:41:14;;;;;;;1.73;1.10;;;29.80;99.90;;;;;;5077106;28;20082;-69
2022/06/24 12:43:57;;;;;;;2.58;0.90;;;30.10;99.90;;;;;;5077251;28;20039;-65
2022/06/24 12:46:33;;;;;;;1.23;1.10;;;31.10;99.90;;;;;;5077393;28;20093;-68
2022/06/24 12:51:48;;;;;;;1.10;1.00;;;28.90;99.90;;;;;;5076805;28;20029;-71
2022/06/24 12:54:15;;;;;;;1.52;1.10;;;29.30;99.90;;;;;;5077185;28;20043;-66
2022/06/24 12:56:42;;;;;;;1.45;0.90;;;30.30;99.90;;;;;;5075891;28;20048;-67